Time;durP1;ratioP1;P1;durP2;ratioP2;P2;SDS_P1;SDS_P2;PMS_P1;PMS_P2;Temp;Humidity;BMP_temperature;BMP_pressure;BME280_temperature;BME280_humidity;BME280_pressure;Samples;Min_cycle;Max_cycle;Signal;HPM_P1;HPM_P2
2021/12/12 00:02:21;;;;;;;62.70;56.30;;;;;;;;;;5006805;28;20088;-53
2021/12/12 00:04:48;;;;;;;50.20;45.47;;;;;;;;;;5006950;28;20037;-53
2021/12/12 00:07:14;;;;;;;58.97;53.20;;;;;;;;;;5006625;28;20037;-51
2021/12/12 00:09:43;;;;;;;59.75;53.78;;;;;;;;;;5006980;28;20026;-53
2021/12/12 00:12:10;;;;;;;52.97;47.88;;;;;;;;;;5005659;28;20029;-51
2021/12/12 00:14:35;;;;;;;50.60;45.90;;;;;;;;;;5006632;28;20022;-52
2021/12/12 00:17:01;;;;;;;57.53;51.90;;;;;;;;;;5006223;28;20030;-53
2021/12/12 00:19:26;;;;;;;54.03;48.83;;;;;;;;;;5006363;28;20269;-53
2021/12/12 00:21:52;;;;;;;57.10;51.53;;;;;;;;;;5006469;28;20041;-53
2021/12/12 00:24:17;;;;;;;60.38;54.33;;;;;;;;;;5006216;28;20064;-51
2021/12/12 00:26:43;;;;;;;58.40;52.53;;;;;;;;;;5006427;28;20168;-51
2021/12/12 00:29:09;;;;;;;59.53;53.53;;;;;;;;;;5006232;28;20088;-53
2021/12/12 00:31:34;;;;;;;61.45;55.33;;;;;;;;;;5006426;28;20060;-53
2021/12/12 00:34:00;;;;;;;53.80;48.70;;;;;;;;;;5006265;28;20423;-53
2021/12/12 00:36:25;;;;;;;48.35;43.92;;;;;;;;;;5006211;28;20536;-52
2021/12/12 00:38:53;;;;;;;56.55;50.90;;;;;;;;;;5005734;28;20037;-53
2021/12/12 00:41:21;;;;;;;63.85;57.25;;;;;;;;;;5005857;28;20022;-51
2021/12/12 00:43:48;;;;;;;61.97;55.60;;;;;;;;;;5005997;28;20109;-51
2021/12/12 00:46:13;;;;;;;63.88;57.17;;;;;;;;;;5005859;28;20163;-52
2021/12/12 00:48:40;;;;;;;50.63;45.92;;;;;;;;;;5006027;28;20131;-52
2021/12/12 00:51:06;;;;;;;60.20;54.13;;;;;;;;;;5005809;28;20038;-51
2021/12/12 00:53:32;;;;;;;74.38;65.38;;;;;;;;;;5005810;28;20037;-52
2021/12/12 00:55:57;;;;;;;76.40;66.43;;;;;;;;;;5005967;28;20462;-52
2021/12/12 00:58:22;;;;;;;61.08;54.70;;;;;;;;;;5005716;28;20390;-51
2021/12/12 01:00:52;;;;;;;56.50;50.45;;;;;;;;;;5005944;28;20042;-51
2021/12/12 01:03:22;;;;;;;60.28;53.55;;;;;;;;;;5005346;28;20026;-51
2021/12/12 01:05:47;;;;;;;68.45;60.95;;;;;;;;;;5005461;28;20045;-51
2021/12/12 01:08:14;;;;;;;75.30;65.07;;;;;;;;;;5005499;28;20026;-51
2021/12/12 01:10:50;;;;;;;62.13;55.60;;;;;;;;;;5005694;28;20038;-51
2021/12/12 01:13:15;;;;;;;81.85;70.00;;;;;;;;;;5005468;28;20029;-53
2021/12/12 01:15:45;;;;;;;38.65;34.90;;;;;;;;;;5005274;28;20026;-52
2021/12/12 01:18:10;;;;;;;;;;;;;;;;;;5005961;28;20045;-51
2021/12/12 01:20:38;;;;;;;65.20;57.80;;;;;;;;;;5005752;28;19937;-51
2021/12/12 01:23:09;;;;;;;77.97;66.05;;;;;;;;;;5005038;28;20040;-52
2021/12/12 01:25:35;;;;;;;73.22;62.58;;;;;;;;;;5005408;28;20018;-52
2021/12/12 01:28:01;;;;;;;86.03;70.35;;;;;;;;;;5005070;28;20037;-52
2021/12/12 01:30:26;;;;;;;112.53;84.40;;;;;;;;;;5005277;28;20041;-53
2021/12/12 01:32:52;;;;;;;101.78;77.07;;;;;;;;;;5003937;28;20415;-52
2021/12/12 01:35:19;;;;;;;26.52;24.58;;;;;;;;;;5004508;28;20053;-53
2021/12/12 01:38:50;;;;;;;34.40;31.60;;;;;;;;;;5005336;28;20050;-54
2021/12/12 01:40:30;;;;;;;69.05;59.65;;;;;;;;;;5004893;28;20393;-53
2021/12/12 01:42:57;;;;;;;38.27;34.90;;;;;;;;;;5004517;28;20034;-52
2021/12/12 01:45:32;;;;;;;132.07;94.30;;;;;;;;;;5004343;28;20272;-53
2021/12/12 01:47:57;;;;;;;122.78;89.13;;;;;;;;;;5005181;28;20109;-54
2021/12/12 01:50:25;;;;;;;109.97;82.23;;;;;;;;;;5005285;28;20104;-54
2021/12/12 01:52:51;;;;;;;119.65;86.80;;;;;;;;;;5004532;28;20026;-54
2021/12/12 01:55:29;;;;;;;173.77;111.73;;;;;;;;;;5004631;28;20040;-53
2021/12/12 01:57:56;;;;;;;42.03;38.50;;;;;;;;;;5003360;28;20778;-54
2021/12/12 02:00:24;;;;;;;47.55;43.30;;;;;;;;;;5004738;28;20037;-53
2021/12/12 02:02:49;;;;;;;134.63;93.32;;;;;;;;;;5004548;28;20057;-53
2021/12/12 02:05:15;;;;;;;180.73;113.32;;;;;;;;;;5002706;28;20030;-52
2021/12/12 02:07:42;;;;;;;153.07;101.72;;;;;;;;;;5003321;28;20065;-51
2021/12/12 02:10:10;;;;;;;128.75;92.20;;;;;;;;;;5004586;28;20057;-53
2021/12/12 02:12:35;;;;;;;132.18;93.80;;;;;;;;;;5004648;28;20029;-52
2021/12/12 02:15:00;;;;;;;133.25;92.05;;;;;;;;;;5003425;28;20025;-54
2021/12/12 02:17:31;;;;;;;128.10;90.00;;;;;;;;;;5004109;28;20036;-53
2021/12/12 02:20:06;;;;;;;125.95;90.70;;;;;;;;;;5003956;28;20273;-53
2021/12/12 02:36:00;;;;;;;209.48;125.88;;;;;;;;;;5004224;28;20045;-52
2021/12/12 02:38:26;;;;;;;198.32;122.07;;;;;;;;;;5000010;28;20025;-52
2021/12/12 02:41:18;;;;;;;219.75;128.77;;;;;;;;;;5004334;28;20060;-53
2021/12/12 02:43:45;;;;;;;189.93;117.88;;;;;;;;;;4987811;28;20238;-52
2021/12/12 02:46:14;;;;;;;189.98;117.65;;;;;;;;;;5004326;28;20045;-53
2021/12/12 02:48:40;;;;;;;189.15;117.55;;;;;;;;;;5003244;28;20487;-52
2021/12/12 02:51:06;;;;;;;175.82;111.80;;;;;;;;;;5004152;28;20037;-52
2021/12/12 02:53:38;;;;;;;196.35;119.93;;;;;;;;;;5004133;28;20034;-52
2021/12/12 02:56:05;;;;;;;187.38;116.85;;;;;;;;;;5004265;28;20800;-52
2021/12/12 02:58:30;;;;;;;183.48;115.15;;;;;;;;;;5004230;28;20030;-54
2021/12/12 03:00:55;;;;;;;206.97;123.63;;;;;;;;;;5004130;28;20026;-52
2021/12/12 03:03:20;;;;;;;214.13;126.30;;;;;;;;;;5004039;28;20330;-53
2021/12/12 03:05:46;;;;;;;195.13;119.33;;;;;;;;;;5002926;28;20040;-54
2021/12/12 03:08:11;;;;;;;212.32;126.90;;;;;;;;;;5004098;28;20328;-54
2021/12/12 03:10:37;;;;;;;188.73;117.72;;;;;;;;;;5003911;28;20514;-52
2021/12/12 03:13:03;;;;;;;182.30;114.90;;;;;;;;;;5004242;28;20026;-52
2021/12/12 03:15:29;;;;;;;192.20;118.57;;;;;;;;;;5003598;28;20512;-51
2021/12/12 03:17:55;;;;;;;248.85;140.00;;;;;;;;;;5003933;28;20034;-51
2021/12/12 03:20:26;;;;;;;246.95;138.65;;;;;;;;;;5003950;28;20116;-51
2021/12/12 03:23:11;;;;;;;243.80;138.52;;;;;;;;;;5004127;28;20025;-53
2021/12/12 03:25:37;;;;;;;241.93;137.45;;;;;;;;;;5003451;28;20036;-52
2021/12/12 03:28:04;;;;;;;241.57;137.25;;;;;;;;;;5004090;28;20868;-53
2021/12/12 03:30:29;;;;;;;261.00;145.80;;;;;;;;;;5003949;28;20033;-52
2021/12/12 03:32:55;;;;;;;238.80;135.47;;;;;;;;;;5007192;28;20029;-53
2021/12/12 03:35:20;;;;;;;252.70;141.73;;;;;;;;;;5006754;28;20267;-51
2021/12/12 03:37:45;;;;;;;254.18;141.77;;;;;;;;;;5007378;28;20335;-52
2021/12/12 03:40:17;;;;;;;253.35;141.20;;;;;;;;;;5007221;28;20543;-52
2021/12/12 03:42:43;;;;;;;261.08;145.23;;;;;;;;;;5007032;28;20042;-52
2021/12/12 03:45:08;;;;;;;243.27;137.25;;;;;;;;;;5006867;28;20400;-52
2021/12/12 03:47:36;;;;;;;277.13;151.18;;;;;;;;;;5007286;28;20115;-52
2021/12/12 03:50:03;;;;;;;266.42;148.23;;;;;;;;;;5008001;28;20057;-52
2021/12/12 03:52:28;;;;;;;280.67;153.20;;;;;;;;;;5006536;28;20109;-52
2021/12/12 03:54:53;;;;;;;312.67;170.80;;;;;;;;;;5007341;28;20134;-53
2021/12/12 03:57:19;;;;;;;293.02;161.50;;;;;;;;;;5006656;28;20326;-52
2021/12/12 03:59:44;;;;;;;328.40;178.20;;;;;;;;;;5006765;28;20104;-52
2021/12/12 04:02:09;;;;;;;313.70;170.48;;;;;;;;;;5006663;28;20506;-51
2021/12/12 04:04:38;;;;;;;332.50;180.33;;;;;;;;;;5006889;28;20029;-53
2021/12/12 04:07:05;;;;;;;334.90;181.60;;;;;;;;;;5006971;28;20320;-52
2021/12/12 04:09:30;;;;;;;295.05;160.95;;;;;;;;;;5006356;28;20029;-51
2021/12/12 04:11:57;;;;;;;287.80;157.67;;;;;;;;;;5006811;28;20069;-53
2021/12/12 04:14:22;;;;;;;320.75;174.00;;;;;;;;;;5005267;28;20364;-51
2021/12/12 04:16:49;;;;;;;340.73;184.77;;;;;;;;;;5006566;28;20479;-51
2021/12/12 04:19:15;;;;;;;326.48;178.10;;;;;;;;;;5006476;28;20040;-51
2021/12/12 04:21:40;;;;;;;455.58;260.88;;;;;;;;;;5006449;28;20018;-53
2021/12/12 04:24:05;;;;;;;500.77;298.00;;;;;;;;;;5006544;28;20416;-52
2021/12/12 04:26:38;;;;;;;542.13;349.25;;;;;;;;;;5006471;28;20080;-52
2021/12/12 04:29:09;;;;;;;335.45;182.98;;;;;;;;;;5006469;28;20104;-52
2021/12/12 04:31:35;;;;;;;302.15;165.35;;;;;;;;;;5005892;28;20109;-55
2021/12/12 04:34:01;;;;;;;278.23;154.20;;;;;;;;;;5004958;28;20188;-52
2021/12/12 04:36:36;;;;;;;278.58;153.18;;;;;;;;;;5006317;28;20033;-53
2021/12/12 04:39:09;;;;;;;213.68;124.70;;;;;;;;;;5006022;28;20060;-54
2021/12/12 04:41:34;;;;;;;128.23;91.85;;;;;;;;;;5005241;28;20032;-54
2021/12/12 04:43:59;;;;;;;159.40;103.07;;;;;;;;;;5005877;28;20038;-51
2021/12/12 04:46:36;;;;;;;145.32;98.13;;;;;;;;;;5006017;28;20049;-53
2021/12/12 04:51:46;;;;;;;159.05;103.95;;;;;;;;;;5006155;28;20036;-52
2021/12/12 04:54:21;;;;;;;134.35;94.03;;;;;;;;;;5005708;28;20158;-51
2021/12/12 04:56:59;;;;;;;158.75;103.80;;;;;;;;;;5005579;28;20116;-53
2021/12/12 04:59:43;;;;;;;134.88;93.78;;;;;;;;;;5005625;28;20069;-53
2021/12/12 05:02:24;;;;;;;151.82;100.72;;;;;;;;;;5005898;28;20026;-51
2021/12/12 05:04:53;;;;;;;163.57;106.32;;;;;;;;;;5004408;28;20048;-52
2021/12/12 05:07:18;;;;;;;189.73;116.70;;;;;;;;;;5003967;28;20528;-53
2021/12/12 05:10:00;;;;;;;97.17;76.93;;;;;;;;;;5005696;28;20017;-52
2021/12/12 05:12:31;;;;;;;158.70;102.70;;;;;;;;;;5005372;28;20026;-54
2021/12/12 05:14:56;;;;;;;;;;;;;;;;;;5005770;28;20032;-54
2021/12/12 05:17:44;;;;;;;54.45;49.35;;;;;;;;;;5005055;28;19921;-52
2021/12/12 05:20:11;;;;;;;62.45;56.15;;;;;;;;;;5002353;28;20041;-53
2021/12/12 05:22:37;;;;;;;157.65;102.03;;;;;;;;;;5000630;28;20030;-53
2021/12/12 05:25:04;;;;;;;151.27;100.18;;;;;;;;;;4999092;28;20092;-53
2021/12/12 05:27:29;;;;;;;195.43;117.13;;;;;;;;;;5004843;28;20029;-52
2021/12/12 05:30:08;;;;;;;181.25;113.20;;;;;;;;;;5003782;28;20459;-52
2021/12/12 05:32:33;;;;;;;142.57;99.15;;;;;;;;;;5005167;28;20034;-51
2021/12/12 05:34:59;;;;;;;161.60;105.38;;;;;;;;;;5005187;28;20033;-53
2021/12/12 05:37:24;;;;;;;216.73;126.60;;;;;;;;;;5004932;28;20037;-53
2021/12/12 05:39:49;;;;;;;192.07;117.43;;;;;;;;;;5004690;28;20022;-54
2021/12/12 05:42:14;;;;;;;172.02;108.80;;;;;;;;;;4983781;28;20030;-51
2021/12/12 05:44:40;;;;;;;218.50;126.63;;;;;;;;;;4995475;28;20106;-52
2021/12/12 05:47:06;;;;;;;241.65;135.13;;;;;;;;;;5003435;28;20686;-52
2021/12/12 05:49:32;;;;;;;234.20;132.85;;;;;;;;;;5004774;28;20107;-53
2021/12/12 05:51:57;;;;;;;234.52;133.02;;;;;;;;;;5003625;28;20026;-53
2021/12/12 05:54:23;;;;;;;233.35;134.40;;;;;;;;;;5003719;28;20046;-54
2021/12/12 05:56:49;;;;;;;215.23;125.97;;;;;;;;;;5004759;28;20391;-54
2021/12/12 05:59:14;;;;;;;147.80;101.77;;;;;;;;;;5004648;28;20064;-53
2021/12/12 06:01:39;;;;;;;289.65;159.55;;;;;;;;;;5003263;28;20272;-51
2021/12/12 06:04:05;;;;;;;278.83;154.43;;;;;;;;;;5003351;28;20122;-51
2021/12/12 06:06:31;;;;;;;277.50;152.98;;;;;;;;;;5004630;28;20512;-52
2021/12/12 06:08:57;;;;;;;251.45;141.98;;;;;;;;;;5004610;28;20030;-51
2021/12/12 06:11:23;;;;;;;189.30;115.80;;;;;;;;;;5004220;28;20053;-52
2021/12/12 06:13:48;;;;;;;200.65;119.55;;;;;;;;;;5004741;28;20072;-53
2021/12/12 06:16:20;;;;;;;105.97;80.47;;;;;;;;;;5003289;28;20436;-52
2021/12/12 06:18:47;;;;;;;137.43;95.32;;;;;;;;;;5004301;28;20128;-51
2021/12/12 06:21:13;;;;;;;231.15;132.73;;;;;;;;;;5004171;28;20112;-51
2021/12/12 06:23:38;;;;;;;161.25;105.10;;;;;;;;;;5004018;28;20105;-51
2021/12/12 06:26:03;;;;;;;210.30;124.40;;;;;;;;;;5004708;28;20548;-52
2021/12/12 06:28:29;;;;;;;212.13;124.38;;;;;;;;;;5004564;28;20948;-51
2021/12/12 06:30:55;;;;;;;185.43;114.55;;;;;;;;;;5004398;28;20038;-53
2021/12/12 06:33:20;;;;;;;183.80;112.82;;;;;;;;;;5004104;28;20022;-52
2021/12/12 06:35:46;;;;;;;208.77;123.25;;;;;;;;;;5004451;28;20103;-52
2021/12/12 06:38:11;;;;;;;218.82;126.72;;;;;;;;;;5004460;28;20037;-51
2021/12/12 06:40:37;;;;;;;203.00;120.30;;;;;;;;;;5004652;28;20029;-51
2021/12/12 06:43:03;;;;;;;222.15;127.18;;;;;;;;;;4999465;28;20092;-54
2021/12/12 06:45:28;;;;;;;223.32;128.15;;;;;;;;;;5001930;28;20030;-53
2021/12/12 06:47:54;;;;;;;182.88;111.13;;;;;;;;;;5003222;28;20506;-49
2021/12/12 06:50:19;;;;;;;264.63;146.55;;;;;;;;;;4992967;28;20088;-52
2021/12/12 06:52:45;;;;;;;209.10;123.07;;;;;;;;;;5002198;28;20547;-54
2021/12/12 06:55:10;;;;;;;196.88;118.55;;;;;;;;;;4986877;28;20316;-53
2021/12/12 06:57:36;;;;;;;268.63;148.50;;;;;;;;;;5001025;28;20080;-54
2021/12/12 07:00:01;;;;;;;201.20;120.70;;;;;;;;;;4997984;28;20101;-54
2021/12/12 07:02:26;;;;;;;134.45;93.60;;;;;;;;;;4986393;28;20363;-53
2021/12/12 07:04:52;;;;;;;85.60;69.38;;;;;;;;;;4985054;28;20027;-53
2021/12/12 07:07:17;;;;;;;83.35;67.85;;;;;;;;;;4987681;28;20023;-53
2021/12/12 07:09:43;;;;;;;164.60;104.27;;;;;;;;;;4991414;28;20571;-53
2021/12/12 07:12:09;;;;;;;77.95;65.25;;;;;;;;;;4990383;28;20504;-52
2021/12/12 07:14:35;;;;;;;136.98;93.25;;;;;;;;;;4993461;28;20562;-54
2021/12/12 07:17:00;;;;;;;178.02;110.32;;;;;;;;;;4988531;28;20053;-53
2021/12/12 07:19:25;;;;;;;169.27;105.28;;;;;;;;;;4990469;28;20114;-53
2021/12/12 07:21:51;;;;;;;108.50;80.13;;;;;;;;;;4991437;28;20092;-54
2021/12/12 07:24:16;;;;;;;240.10;133.77;;;;;;;;;;4988224;28;20030;-51
2021/12/12 07:26:41;;;;;;;216.85;125.70;;;;;;;;;;4988099;28;20030;-52
2021/12/12 07:29:07;;;;;;;251.45;139.68;;;;;;;;;;5005226;28;20846;-52
2021/12/12 07:31:32;;;;;;;156.20;100.27;;;;;;;;;;5006607;28;20030;-53
2021/12/12 07:33:58;;;;;;;203.30;119.72;;;;;;;;;;5006276;28;21119;-53
2021/12/12 07:36:24;;;;;;;216.68;125.20;;;;;;;;;;5006344;28;20523;-52
2021/12/12 07:38:56;;;;;;;138.90;95.18;;;;;;;;;;4994620;28;20034;-52
2021/12/12 07:41:22;;;;;;;151.68;99.78;;;;;;;;;;5003214;28;20025;-52
2021/12/12 07:43:47;;;;;;;117.22;85.25;;;;;;;;;;4997684;28;20045;-51
2021/12/12 07:46:12;;;;;;;158.30;101.43;;;;;;;;;;4996714;28;20064;-54
2021/12/12 07:48:39;;;;;;;84.57;68.77;;;;;;;;;;4992402;28;20022;-54
2021/12/12 07:51:05;;;;;;;184.77;112.00;;;;;;;;;;5006230;28;20272;-52
2021/12/12 07:53:30;;;;;;;154.75;99.65;;;;;;;;;;5004404;28;20045;-54
2021/12/12 07:55:55;;;;;;;79.88;66.57;;;;;;;;;;5004523;28;20119;-54
2021/12/12 07:58:21;;;;;;;178.20;108.72;;;;;;;;;;5003953;28;20054;-54
2021/12/12 08:00:46;;;;;;;172.73;106.33;;;;;;;;;;4993954;28;20029;-53
2021/12/12 08:03:12;;;;;;;164.20;104.80;;;;;;;;;;5001101;28;21063;-54
2021/12/12 08:05:38;;;;;;;130.10;90.05;;;;;;;;;;5005799;28;20032;-54
2021/12/12 08:08:05;;;;;;;150.95;99.15;;;;;;;;;;5005897;28;20034;-55
2021/12/12 08:10:30;;;;;;;151.50;98.03;;;;;;;;;;5004967;28;20416;-55
2021/12/12 08:12:55;;;;;;;62.53;55.80;;;;;;;;;;5003159;28;20520;-56
2021/12/12 08:15:20;;;;;;;56.35;50.63;;;;;;;;;;4999026;28;20622;-56
2021/12/12 08:17:46;;;;;;;62.83;56.30;;;;;;;;;;5004101;28;20037;-56
2021/12/12 08:20:13;;;;;;;81.30;66.82;;;;;;;;;;5004742;28;20469;-56
2021/12/12 08:22:38;;;;;;;151.60;98.53;;;;;;;;;;5005667;28;20397;-55
2021/12/12 08:25:04;;;;;;;120.43;84.43;;;;;;;;;;5004299;28;20025;-58
2021/12/12 08:27:30;;;;;;;127.38;89.63;;;;;;;;;;5003584;28;20460;-55
2021/12/12 08:29:55;;;;;;;157.30;100.00;;;;;;;;;;4995376;28;20113;-56
2021/12/12 08:32:20;;;;;;;164.95;103.38;;;;;;;;;;5004578;28;20265;-56
2021/12/12 08:34:46;;;;;;;147.43;95.37;;;;;;;;;;5003149;28;20041;-55
2021/12/12 08:37:11;;;;;;;152.32;98.97;;;;;;;;;;5003685;28;20121;-55
2021/12/12 08:39:36;;;;;;;56.70;51.00;;;;;;;;;;4990004;28;20041;-54
2021/12/12 08:42:03;;;;;;;143.97;95.27;;;;;;;;;;4992888;28;20026;-57
2021/12/12 08:44:29;;;;;;;133.75;90.10;;;;;;;;;;5005346;28;20758;-55
2021/12/12 08:46:54;;;;;;;127.43;87.25;;;;;;;;;;5005226;28;20018;-54
2021/12/12 08:49:21;;;;;;;122.90;85.50;;;;;;;;;;5005234;28;20330;-54
2021/12/12 08:51:51;;;;;;;155.23;99.13;;;;;;;;;;5005147;28;20085;-54
2021/12/12 08:54:23;;;;;;;73.93;63.47;;;;;;;;;;5004743;28;20511;-56
2021/12/12 08:56:54;;;;;;;145.13;94.88;;;;;;;;;;5005245;28;20047;-55
2021/12/12 08:59:25;;;;;;;87.95;69.28;;;;;;;;;;4990214;28;20106;-54
2021/12/12 09:01:52;;;;;;;56.28;50.65;;;;;;;;;;5004262;28;20026;-55
2021/12/12 09:04:17;;;;;;;88.65;69.65;;;;;;;;;;5004822;28;20053;-55
2021/12/12 09:07:02;;;;;;;133.13;90.57;;;;;;;;;;5003824;28;20073;-55
2021/12/12 09:09:29;;;;;;;126.50;87.20;;;;;;;;;;5001580;28;20288;-55
2021/12/12 09:12:02;;;;;;;129.10;89.05;;;;;;;;;;5003349;28;20093;-53
2021/12/12 09:14:42;;;;;;;134.68;90.40;;;;;;;;;;5002403;28;20581;-55
2021/12/12 09:17:07;;;;;;;;;;;;;;;;;;4997995;28;20042;-52
2021/12/12 09:19:34;;;;;;;76.65;62.67;;;;;;;;;;4989753;28;19914;-52
2021/12/12 09:22:08;;;;;;;54.17;48.90;;;;;;;;;;5005227;28;20010;-52
2021/12/12 09:24:43;;;;;;;54.75;49.42;;;;;;;;;;5013494;28;20068;-52
2021/12/12 09:27:09;;;;;;;60.08;53.83;;;;;;;;;;5023824;28;20045;-52
2021/12/12 09:29:51;;;;;;;56.95;51.25;;;;;;;;;;5006927;28;20116;-51
2021/12/12 09:32:30;;;;;;;58.42;52.45;;;;;;;;;;5005091;28;20013;-52
2021/12/12 09:34:57;;;;;;;101.45;75.80;;;;;;;;;;5005278;28;20029;-51
2021/12/12 09:37:25;;;;;;;96.22;73.25;;;;;;;;;;5003770;28;20045;-54
2021/12/12 09:39:58;;;;;;;90.72;70.05;;;;;;;;;;4987433;28;20033;-51
2021/12/12 09:42:29;;;;;;;104.65;77.10;;;;;;;;;;4994790;28;20025;-51
2021/12/12 09:44:58;;;;;;;159.32;100.65;;;;;;;;;;5004723;28;20449;-52
2021/12/12 09:53:00;;;;;;;131.88;89.85;;;;;;;;;;5005875;28;20045;-54
2021/12/12 09:55:28;;;;;;;146.95;94.65;;;;;;;;;;5004723;28;20025;-52
2021/12/12 09:57:56;;;;;;;124.22;85.78;;;;;;;;;;5005101;28;20552;-54
2021/12/12 10:00:24;;;;;;;109.97;78.68;;;;;;;;;;5004676;28;20025;-50
2021/12/12 10:03:02;;;;;;;50.53;45.88;;;;;;;;;;5004738;28;20073;-51
2021/12/12 10:05:31;;;;;;;49.17;44.28;;;;;;;;;;5002100;28;20060;-52
2021/12/12 10:08:02;;;;;;;84.97;66.63;;;;;;;;;;5001886;28;20036;-51
2021/12/12 10:10:34;;;;;;;120.97;83.68;;;;;;;;;;5002162;28;20264;-51
2021/12/12 10:13:02;;;;;;;110.38;80.65;;;;;;;;;;5002077;28;20451;-51
2021/12/12 10:15:28;;;;;;;86.10;67.20;;;;;;;;;;5002270;28;20127;-50
2021/12/12 10:17:58;;;;;;;53.00;47.58;;;;;;;;;;5004258;28;20034;-51
2021/12/12 10:20:29;;;;;;;55.05;49.28;;;;;;;;;;5004305;28;20034;-50
2021/12/12 10:23:13;;;;;;;52.83;47.28;;;;;;;;;;5000181;28;20037;-50
2021/12/12 10:25:47;;;;;;;113.15;81.22;;;;;;;;;;5002155;28;20129;-53
2021/12/12 10:28:22;;;;;;;129.80;89.07;;;;;;;;;;5004562;28;20033;-53
2021/12/12 10:30:54;;;;;;;122.60;85.72;;;;;;;;;;5004637;28;20045;-53
2021/12/12 10:33:38;;;;;;;54.45;48.85;;;;;;;;;;5004492;28;20026;-52
2021/12/12 10:36:10;;;;;;;142.18;95.97;;;;;;;;;;5004378;28;20042;-51
2021/12/12 10:39:05;;;;;;;86.05;68.38;;;;;;;;;;5004487;28;20056;-52
2021/12/12 10:41:38;;;;;;;112.60;82.32;;;;;;;;;;4988065;28;20118;-51
2021/12/12 10:44:23;;;;;;;105.70;78.63;;;;;;;;;;4991761;28;20025;-52
2021/12/12 10:46:57;;;;;;;105.50;78.30;;;;;;;;;;5007743;28;20397;-52
2021/12/12 10:49:27;;;;;;;105.03;79.43;;;;;;;;;;5007019;28;20029;-53
2021/12/12 10:51:57;;;;;;;101.05;75.40;;;;;;;;;;5008271;28;20030;-52
2021/12/12 10:54:24;;;;;;;72.55;61.05;;;;;;;;;;5006715;28;20046;-52
2021/12/12 10:56:52;;;;;;;89.50;70.47;;;;;;;;;;5006788;28;20084;-53
2021/12/12 10:59:17;;;;;;;61.22;54.58;;;;;;;;;;5007972;28;20018;-52
2021/12/12 11:01:43;;;;;;;89.33;72.50;;;;;;;;;;5007865;28;20026;-52
2021/12/12 11:04:11;;;;;;;84.70;67.15;;;;;;;;;;5006683;28;20264;-53
2021/12/12 11:06:42;;;;;;;97.28;75.95;;;;;;;;;;5007795;28;20080;-52
2021/12/12 11:09:11;;;;;;;104.53;79.40;;;;;;;;;;5007810;28;20029;-52
2021/12/12 11:11:39;;;;;;;78.43;65.10;;;;;;;;;;5007657;28;20116;-52
2021/12/12 11:14:10;;;;;;;47.75;42.97;;;;;;;;;;5007722;28;20529;-51
2021/12/12 11:16:47;;;;;;;119.00;85.30;;;;;;;;;;5007768;28;20113;-51
2021/12/12 11:19:13;;;;;;;112.00;82.05;;;;;;;;;;5006412;28;20033;-53
2021/12/12 11:21:44;;;;;;;99.30;75.38;;;;;;;;;;5022415;28;20071;-53
2021/12/12 11:24:16;;;;;;;100.78;76.55;;;;;;;;;;5006602;28;20026;-51
2021/12/12 11:26:53;;;;;;;113.05;82.28;;;;;;;;;;5007627;28;20017;-51
2021/12/12 11:29:21;;;;;;;168.35;108.22;;;;;;;;;;5006087;28;20018;-51
2021/12/12 11:31:46;;;;;;;95.15;70.78;;;;;;;;;;5007348;28;20479;-51
2021/12/12 11:34:11;;;;;;;115.10;84.47;;;;;;;;;;5007246;28;20014;-51
2021/12/12 11:36:42;;;;;;;63.70;56.00;;;;;;;;;;5005893;28;20131;-52
2021/12/12 11:39:24;;;;;;;129.48;89.78;;;;;;;;;;4989436;28;20025;-51
2021/12/12 11:42:06;;;;;;;115.97;83.13;;;;;;;;;;5005606;28;20022;-53
2021/12/12 11:44:37;;;;;;;125.65;88.10;;;;;;;;;;5006061;28;20037;-53
2021/12/12 11:47:08;;;;;;;136.90;93.05;;;;;;;;;;5007095;28;20424;-53
2021/12/12 11:49:54;;;;;;;78.13;63.95;;;;;;;;;;5005989;28;20099;-53
2021/12/12 11:52:39;;;;;;;132.38;91.82;;;;;;;;;;4998462;28;20144;-51
2021/12/12 11:55:09;;;;;;;44.92;40.78;;;;;;;;;;5006478;28;20085;-53
2021/12/12 11:57:43;;;;;;;45.83;41.42;;;;;;;;;;5007005;28;20413;-51
2021/12/12 12:00:16;;;;;;;28.52;26.20;;;;;;;;;;4991668;28;20080;-52
2021/12/12 12:02:41;;;;;;;40.30;36.85;;;;;;;;;;5007151;28;20056;-51
2021/12/12 12:05:07;;;;;;;28.97;26.80;;;;;;;;;;5005521;28;20524;-52
2021/12/12 12:07:43;;;;;;;32.00;29.23;;;;;;;;;;4992018;28;20034;-52
2021/12/12 12:10:13;;;;;;;39.88;36.35;;;;;;;;;;4995342;28;20094;-52
2021/12/12 12:13:01;;;;;;;34.75;32.08;;;;;;;;;;4995325;28;20030;-51
2021/12/12 12:15:50;;;;;;;39.92;36.42;;;;;;;;;;5002822;28;20025;-54
2021/12/12 12:18:22;;;;;;;38.47;35.20;;;;;;;;;;4978863;28;20570;-51
2021/12/12 12:20:54;;;;;;;34.47;31.60;;;;;;;;;;4992180;28;20582;-51
2021/12/12 12:23:32;;;;;;;38.50;34.78;;;;;;;;;;4985997;28;20061;-52
2021/12/12 12:28:56;;;;;;;33.08;30.30;;;;;;;;;;4986741;28;20400;-53
2021/12/12 12:31:33;;;;;;;39.53;36.20;;;;;;;;;;4987303;28;20780;-53
2021/12/12 12:34:17;;;;;;;36.55;33.35;;;;;;;;;;4988009;28;20117;-56
2021/12/12 12:37:00;;;;;;;39.67;36.28;;;;;;;;;;5005119;28;20444;-51
2021/12/12 12:39:31;;;;;;;33.60;30.75;;;;;;;;;;5000844;28;20065;-53
2021/12/12 12:42:15;;;;;;;46.22;41.63;;;;;;;;;;5005924;28;20476;-53
2021/12/12 12:44:40;;;;;;;42.75;38.90;;;;;;;;;;5006341;28;20290;-52
2021/12/12 12:47:32;;;;;;;45.00;40.73;;;;;;;;;;5006223;28;20574;-55
2021/12/12 12:50:15;;;;;;;47.97;43.35;;;;;;;;;;5005923;28;20033;-53
2021/12/12 12:53:13;;;;;;;44.10;39.95;;;;;;;;;;5005895;28;20477;-55
2021/12/12 12:55:46;;;;;;;44.55;40.47;;;;;;;;;;4983083;28;20115;-52
2021/12/12 12:58:14;;;;;;;49.67;44.83;;;;;;;;;;5005776;28;20029;-52
2021/12/12 13:00:41;;;;;;;50.33;45.53;;;;;;;;;;5006211;28;20097;-51
2021/12/12 13:03:19;;;;;;;49.67;44.95;;;;;;;;;;5005504;28;20105;-51
2021/12/12 13:05:50;;;;;;;47.45;43.08;;;;;;;;;;5005779;28;20069;-52
2021/12/12 13:08:33;;;;;;;52.05;47.10;;;;;;;;;;5005719;28;20014;-50
2021/12/12 13:11:00;;;;;;;57.00;51.28;;;;;;;;;;5006138;28;20543;-51
2021/12/12 13:13:30;;;;;;;55.83;50.08;;;;;;;;;;5005610;28;20026;-51
2021/12/12 13:16:11;;;;;;;50.17;45.38;;;;;;;;;;5005411;28;20471;-52
2021/12/12 13:18:49;;;;;;;56.10;50.55;;;;;;;;;;4999977;28;20556;-51
2021/12/12 13:21:17;;;;;;;55.40;50.05;;;;;;;;;;4989686;28;20572;-51
2021/12/12 13:23:42;;;;;;;55.03;49.45;;;;;;;;;;4995104;28;20038;-53
2021/12/12 13:26:12;;;;;;;57.92;51.88;;;;;;;;;;4998563;28;20030;-52
2021/12/12 13:28:42;;;;;;;53.28;48.00;;;;;;;;;;4988951;28;20026;-52
2021/12/12 13:31:16;;;;;;;56.15;50.47;;;;;;;;;;4987407;28;21040;-51
2021/12/12 13:33:51;;;;;;;65.00;58.05;;;;;;;;;;4982999;28;20501;-53
2021/12/12 13:36:28;;;;;;;69.65;61.25;;;;;;;;;;4990058;28;20135;-52
2021/12/12 13:38:56;;;;;;;121.68;86.93;;;;;;;;;;4981325;28;20505;-52
2021/12/12 13:41:26;;;;;;;85.30;70.95;;;;;;;;;;4986972;28;20018;-54
2021/12/12 13:44:05;;;;;;;77.20;65.22;;;;;;;;;;5002749;28;20133;-53
2021/12/12 13:46:42;;;;;;;97.55;76.63;;;;;;;;;;5003676;28;20021;-54
2021/12/12 13:49:13;;;;;;;92.78;73.72;;;;;;;;;;5005273;28;20026;-52
2021/12/12 13:51:38;;;;;;;60.03;53.78;;;;;;;;;;5005042;28;20061;-52
2021/12/12 13:54:13;;;;;;;65.53;58.37;;;;;;;;;;5004674;28;20505;-53
2021/12/12 13:56:42;;;;;;;58.58;52.55;;;;;;;;;;5005096;28;20034;-54
2021/12/12 13:59:13;;;;;;;58.95;53.03;;;;;;;;;;5003341;28;20036;-54
2021/12/12 14:01:58;;;;;;;55.67;50.20;;;;;;;;;;5005033;28;20025;-51
2021/12/12 14:04:29;;;;;;;52.85;47.88;;;;;;;;;;4988699;28;20048;-53
2021/12/12 14:06:54;;;;;;;49.00;44.45;;;;;;;;;;5005066;28;20050;-51
2021/12/12 14:09:21;;;;;;;46.17;42.03;;;;;;;;;;5003834;28;20052;-52
2021/12/12 14:11:48;;;;;;;49.38;44.70;;;;;;;;;;5002702;28;20486;-52
2021/12/12 14:14:19;;;;;;;37.95;34.85;;;;;;;;;;5001698;28;20022;-52
2021/12/12 14:16:46;;;;;;;43.00;39.17;;;;;;;;;;5003802;28;20574;-52
2021/12/12 14:19:37;;;;;;;42.05;38.38;;;;;;;;;;5000309;28;20499;-51
2021/12/12 14:22:03;;;;;;;48.50;43.92;;;;;;;;;;4994893;28;20236;-54
2021/12/12 14:24:32;;;;;;;48.53;43.92;;;;;;;;;;4997587;28;20126;-52
2021/12/12 14:26:57;;;;;;;44.72;40.80;;;;;;;;;;5004506;28;20029;-52
2021/12/12 14:29:23;;;;;;;34.00;31.05;;;;;;;;;;5003188;28;20109;-52
2021/12/12 14:32:02;;;;;;;38.13;34.88;;;;;;;;;;5003224;28;20061;-51
2021/12/12 14:34:30;;;;;;;42.85;39.13;;;;;;;;;;5004422;28;20038;-52
2021/12/12 14:36:55;;;;;;;38.95;35.58;;;;;;;;;;5002833;28;20522;-52
2021/12/12 14:39:22;;;;;;;41.03;37.53;;;;;;;;;;5004268;28;20022;-53
2021/12/12 14:41:57;;;;;;;46.53;42.25;;;;;;;;;;5002908;28;20280;-53
2021/12/12 14:44:30;;;;;;;46.80;42.55;;;;;;;;;;4988012;28;20024;-52